Time,TemperatureF,DewpointF,PressureIn,WindDirection,WindDirectionDegrees,WindSpeedMPH,WindSpeedGustMPH,Humidity,HourlyPrecipIn,Conditions,Clouds,dailyrainin,SoftwareType,DateUTC
2013-10-06 00:02:00,72.0,35.0,-100.00,North,352,-999.0,0.0,26,-99.99,,,0.00,,2013-10-06 07:02:00,
2013-10-06 01:11:00,71.0,27.0,-100.00,ENE,57,-999.0,-999.0,19,-99.99,,,-99.99,,2013-10-06 08:11:00,
2013-10-06 01:22:00,71.0,27.0,-100.00,ENE,57,-999.0,7.0,19,-99.99,,,-99.99,,2013-10-06 08:22:00,
2013-10-06 01:42:00,75.0,27.0,-100.00,East,84,-999.0,7.0,17,-99.99,,,0.00,,2013-10-06 08:42:00,
2013-10-06 02:11:00,76.0,27.0,-100.00,ENE,72,-999.0,-999.0,16,-99.99,,,-99.99,,2013-10-06 09:11:00,
2013-10-06 02:22:00,76.0,27.0,-100.00,ENE,72,-999.0,-999.0,16,-99.99,,,-99.99,,2013-10-06 09:22:00,
2013-10-06 02:33:00,76.0,27.0,-100.00,ENE,72,-999.0,-999.0,16,-99.99,,,-99.99,,2013-10-06 09:33:00,
2013-10-06 03:43:00,72.0,27.0,-100.00,NE,55,-999.0,6.0,19,-99.99,,,0.00,,2013-10-06 10:43:00,
2013-10-06 04:12:00,71.0,27.0,-100.00,ENE,71,-999.0,6.0,19,-99.99,,,-99.99,,2013-10-06 11:12:00,
2013-10-06 04:42:00,73.0,27.0,-100.00,ENE,75,-999.0,-999.0,18,-99.99,,,0.00,,2013-10-06 11:42:00,
2013-10-06 04:52:00,73.0,27.0,-100.00,ENE,75,-999.0,-999.0,18,-99.99,,,0.00,,2013-10-06 11:52:00,
2013-10-06 05:02:00,73.0,27.0,-100.00,ENE,75,-999.0,-999.0,18,-99.99,,,0.00,,2013-10-06 12:02:00,
2013-10-06 05:42:00,74.0,26.0,-100.00,ENE,63,-999.0,4.0,17,-99.99,,,0.00,,2013-10-06 12:42:00,
2013-10-06 05:52:00,74.0,26.0,-100.00,ENE,63,-999.0,4.0,17,-99.99,,,0.00,,2013-10-06 12:52:00,
2013-10-06 06:11:00,71.0,27.0,-100.00,ENE,63,-999.0,4.0,19,-99.99,,,-99.99,,2013-10-06 13:11:00,
2013-10-06 06:21:00,71.0,27.0,-100.00,ENE,63,-999.0,4.0,19,-99.99,,,-99.99,,2013-10-06 13:21:00,
2013-10-06 06:42:00,71.0,27.0,-100.00,NE,53,-999.0,0.0,19,-99.99,,,0.00,,2013-10-06 13:42:00,
2013-10-06 07:11:00,71.0,27.0,-100.00,NNE,17,-999.0,2.0,19,-99.99,,,-99.99,,2013-10-06 14:11:00,
2013-10-06 07:22:00,71.0,27.0,-100.00,NNE,17,-999.0,2.0,19,-99.99,,,-99.99,,2013-10-06 14:22:00,
2013-10-06 07:42:00,74.0,25.0,-100.00,NE,52,-999.0,9.0,16,-99.99,,,-99.99,,2013-10-06 14:42:00,
2013-10-06 08:22:00,75.0,27.0,-100.00,NE,38,-999.0,8.0,17,-99.99,,,-99.99,,2013-10-06 15:22:00,
2013-10-06 11:12:00,89.0,30.0,-100.00,NE,42,-999.0,14.0,12,-99.99,,,-99.99,,2013-10-06 18:12:00,
2013-10-06 11:21:00,89.0,30.0,-100.00,NE,42,-999.0,14.0,12,-99.99,,,-99.99,,2013-10-06 18:21:00,
2013-10-06 15:43:00,85.0,37.0,-100.00,West,267,-999.0,9.0,18,-99.99,,,0.00,,2013-10-06 22:43:00,
2013-10-06 16:12:00,87.0,37.0,-100.00,North,-999,-999.0,8.0,17,-99.99,,,-99.99,,2013-10-06 23:12:00,
2013-10-06 19:42:00,73.0,42.0,29.95,WNW,300,-999.0,6.0,33,-99.99,,,-99.99,,2013-10-07 02:42:00,
2013-10-06 20:12:00,73.0,39.0,-100.00,West,278,-999.0,5.0,29,-99.99,,,-99.99,,2013-10-07 03:12:00,
2013-10-06 20:22:00,73.0,39.0,-100.00,West,278,-999.0,5.0,29,-99.99,,,-99.99,,2013-10-07 03:22:00,
2013-10-06 20:44:00,70.0,50.0,-100.00,NE,34,-999.0,5.0,50,-99.99,,,0.00,,2013-10-07 03:44:00,
2013-10-06 21:13:00,68.0,52.0,-100.00,NE,34,-999.0,4.0,56,-99.99,,,-99.99,,2013-10-07 04:13:00,
2013-10-06 22:13:00,66.0,52.0,-100.00,South,186,-999.0,0.0,61,-99.99,,,-99.99,,2013-10-07 05:13:00,
2013-10-06 22:43:00,64.0,43.0,-100.00,South,186,-999.0,0.0,47,-99.99,,,-99.99,,2013-10-07 05:43:00,
2013-10-06 23:12:00,64.0,45.0,-100.00,WNW,301,-999.0,-999.0,51,-99.99,,,-99.99,,2013-10-07 06:12:00,
2013-10-06 23:21:00,64.0,45.0,-100.00,WNW,301,-999.0,-999.0,51,-99.99,,,-99.99,,2013-10-07 06:21:00,
2013-10-06 23:32:00,64.0,45.0,-100.00,WNW,301,-999.0,-999.0,51,-99.99,,,-99.99,,2013-10-07 06:32:00,